createdAt,value
2019-03-12T00:00:52.014Z,11.70
2019-03-12T00:03:25.075Z,13.37
2019-03-12T00:05:56.685Z,17.53
2019-03-12T00:08:28.495Z,17.27
2019-03-12T00:11:00.869Z,15.73
2019-03-12T00:13:32.447Z,16.77
2019-03-12T00:16:04.046Z,14.40
2019-03-12T00:18:35.627Z,10.67
2019-03-12T00:21:07.163Z,14.80
2019-03-12T00:23:38.675Z,17.50
2019-03-12T00:26:10.272Z,15.80
2019-03-12T00:28:43.327Z,18.00
2019-03-12T00:31:14.842Z,18.93
2019-03-12T00:33:46.552Z,12.67
2019-03-12T00:36:18.079Z,15.57
2019-03-12T00:38:49.682Z,17.03
2019-03-12T00:41:21.209Z,13.83
2019-03-12T00:43:53.314Z,16.77
2019-03-12T00:46:27.070Z,14.83
2019-03-12T00:48:58.119Z,16.20
2019-03-12T00:51:29.799Z,12.00
2019-03-12T00:54:01.405Z,24.10
2019-03-12T00:56:32.931Z,22.60
2019-03-12T00:59:05.196Z,24.73
2019-03-12T01:01:36.779Z,22.17
2019-03-12T01:04:09.607Z,28.03
2019-03-12T01:06:41.257Z,24.33
2019-03-12T01:09:12.916Z,18.93
2019-03-12T01:11:44.587Z,24.97
2019-03-12T01:14:16.124Z,21.33
2019-03-12T01:16:48.118Z,27.87
2019-03-12T01:19:19.658Z,19.33
2019-03-12T01:21:51.365Z,33.33
2019-03-12T01:24:23.479Z,30.43
2019-03-12T01:26:56.640Z,24.20
2019-03-12T01:29:28.718Z,24.80
2019-03-12T01:32:00.723Z,24.63
2019-03-12T01:34:32.411Z,20.43
2019-03-12T01:37:04.097Z,20.57
2019-03-12T01:39:36.246Z,19.87
2019-03-12T01:42:07.787Z,19.33
2019-03-12T01:44:39.397Z,21.20
2019-03-12T01:47:11.009Z,25.20
2019-03-12T01:49:42.701Z,15.63
2019-03-12T01:52:14.311Z,17.67
2019-03-12T01:54:46.278Z,14.70
2019-03-12T01:57:17.842Z,16.93
2019-03-12T01:59:49.514Z,18.27
2019-03-12T02:02:21.103Z,16.53
2019-03-12T02:04:52.627Z,15.50
2019-03-12T02:07:24.452Z,19.27
2019-03-12T02:09:55.987Z,18.60
2019-03-12T02:12:27.496Z,18.83
2019-03-12T02:14:59.445Z,17.03
2019-03-12T02:17:31.126Z,19.33
2019-03-12T02:20:02.647Z,18.13
2019-03-12T02:22:35.363Z,22.40
2019-03-12T02:25:11.388Z,21.07
2019-03-12T02:27:42.916Z,19.50
2019-03-12T02:30:22.615Z,18.20
2019-03-12T02:32:54.290Z,22.10
2019-03-12T02:35:26.186Z,18.47
2019-03-12T02:37:57.776Z,20.67
2019-03-12T02:40:29.610Z,16.90
2019-03-12T02:43:01.211Z,20.53
2019-03-12T02:45:34.697Z,21.30
2019-03-12T02:48:07.391Z,20.20
2019-03-12T02:50:39.066Z,17.90
2019-03-12T02:53:10.580Z,21.83
2019-03-12T02:55:42.158Z,19.70
2019-03-12T02:58:13.670Z,24.63
2019-03-12T03:00:45.367Z,16.20
2019-03-12T03:03:18.751Z,16.17
2019-03-12T03:05:54.814Z,17.57
2019-03-12T03:08:27.992Z,17.47
2019-03-12T03:10:59.624Z,16.80
2019-03-12T03:13:31.630Z,16.30
2019-03-12T03:16:03.390Z,11.87
2019-03-12T03:18:35.060Z,16.23
2019-03-12T03:21:06.597Z,14.03
2019-03-12T03:23:38.111Z,14.23
2019-03-12T03:26:09.693Z,11.17
2019-03-12T03:28:41.316Z,14.80
2019-03-12T03:31:12.843Z,18.47
2019-03-12T03:33:44.346Z,12.13
2019-03-12T03:36:15.952Z,12.27
2019-03-12T03:38:47.581Z,11.23
2019-03-12T03:41:19.237Z,11.17
2019-03-12T03:43:50.779Z,11.90
2019-03-12T03:46:23.045Z,10.57
2019-03-12T03:48:54.749Z,10.57
2019-03-12T03:51:26.286Z,10.57
2019-03-12T03:53:57.814Z,11.40
2019-03-12T03:56:29.347Z,13.93
2019-03-12T03:59:00.900Z,14.27
2019-03-12T04:01:32.618Z,12.00
2019-03-12T04:04:05.296Z,9.50
2019-03-12T04:06:36.813Z,11.37
2019-03-12T04:09:08.502Z,14.10
2019-03-12T04:11:40.228Z,15.97
2019-03-12T04:14:12.329Z,16.33
2019-03-12T04:16:44.202Z,11.10
2019-03-12T04:19:16.172Z,12.50
2019-03-12T04:21:47.755Z,9.70
2019-03-12T04:24:19.276Z,11.33
2019-03-12T04:26:52.508Z,10.83
2019-03-12T04:29:24.030Z,11.10
2019-03-12T04:31:56.069Z,12.73
2019-03-12T04:34:28.085Z,11.13
2019-03-12T04:36:59.627Z,17.33
2019-03-12T04:39:32.605Z,10.47
2019-03-12T04:42:04.206Z,12.10
2019-03-12T04:44:36.101Z,11.03
2019-03-12T04:47:07.665Z,12.17
2019-03-12T04:49:39.547Z,8.87
2019-03-12T04:52:11.329Z,10.93
2019-03-12T04:54:42.856Z,13.37
2019-03-12T04:57:14.369Z,10.97
2019-03-12T04:59:45.899Z,11.10
2019-03-12T05:02:17.402Z,11.07
2019-03-12T05:04:49.545Z,9.70
2019-03-12T05:07:21.079Z,12.13
2019-03-12T05:09:52.593Z,11.97
2019-03-12T05:12:24.177Z,13.93
2019-03-12T05:14:55.728Z,14.00
2019-03-12T05:17:27.312Z,7.57
2019-03-12T05:19:58.910Z,13.30
2019-03-12T05:22:30.422Z,11.33
2019-03-12T05:25:02.967Z,14.00
2019-03-12T05:27:36.077Z,13.03
2019-03-12T05:30:20.851Z,13.00
2019-03-12T05:32:52.965Z,12.53
2019-03-12T05:35:24.928Z,13.30
2019-03-12T05:37:56.523Z,14.17
2019-03-12T05:40:28.121Z,12.13
2019-03-12T05:42:59.657Z,14.77
2019-03-12T05:45:31.172Z,13.60
2019-03-12T05:48:02.958Z,12.73
2019-03-12T05:50:34.462Z,18.33
2019-03-12T05:53:14.979Z,19.13
2019-03-12T05:55:46.738Z,14.77
2019-03-12T05:58:18.233Z,13.93
2019-03-12T06:00:49.828Z,17.63
2019-03-12T06:03:21.350Z,14.53
2019-03-12T06:05:53.284Z,14.40
2019-03-12T06:08:25.142Z,12.20
2019-03-12T06:10:56.671Z,15.27
2019-03-12T06:13:28.175Z,15.47
2019-03-12T06:15:59.881Z,12.40
2019-03-12T06:18:31.483Z,16.47
2019-03-12T06:21:03.007Z,11.43
2019-03-12T06:23:34.548Z,13.17
2019-03-12T06:26:06.080Z,19.23
2019-03-12T06:28:37.603Z,10.23
2019-03-12T06:31:16.952Z,11.80
2019-03-12T06:33:52.264Z,10.63
2019-03-12T06:36:25.486Z,13.80
2019-03-12T06:38:56.770Z,10.53
2019-03-12T06:41:31.075Z,13.43
2019-03-12T06:44:22.613Z,11.90
2019-03-12T06:47:12.211Z,13.23
2019-03-12T06:49:46.533Z,13.43
2019-03-12T06:52:20.915Z,12.97
2019-03-12T06:54:57.511Z,13.67
2019-03-12T06:57:31.804Z,10.63
2019-03-12T07:00:05.880Z,12.90
2019-03-12T07:02:37.351Z,12.50
2019-03-12T07:05:26.683Z,13.30
2019-03-12T07:08:14.929Z,12.07
2019-03-12T07:10:48.617Z,11.17
2019-03-12T07:13:38.150Z,12.10
2019-03-12T07:16:11.526Z,15.67
2019-03-12T07:18:44.697Z,11.40
2019-03-12T07:21:18.906Z,11.37
2019-03-12T07:24:08.457Z,12.50
2019-03-12T07:26:44.381Z,14.50
2019-03-12T07:29:35.046Z,14.60
2019-03-12T07:32:24.559Z,11.07
2019-03-12T07:35:06.838Z,14.73
2019-03-12T07:37:56.037Z,9.13
2019-03-12T07:40:38.089Z,10.73
2019-03-12T07:43:27.548Z,10.73
2019-03-12T07:46:00.967Z,11.50
2019-03-12T07:48:34.206Z,12.63
2019-03-12T07:51:07.413Z,16.20
2019-03-12T07:53:44.595Z,10.80
2019-03-12T07:56:25.022Z,9.33
2019-03-12T07:59:14.892Z,13.27
2019-03-12T08:01:48.115Z,10.10
2019-03-12T08:04:23.102Z,9.23
2019-03-12T08:06:56.242Z,9.43
2019-03-12T08:09:38.772Z,11.10
2019-03-12T08:12:14.967Z,8.30
2019-03-12T08:14:48.259Z,9.83
2019-03-12T08:17:25.488Z,8.93
2019-03-12T08:20:01.950Z,9.37
2019-03-12T08:22:33.286Z,8.50
2019-03-12T08:25:11.378Z,7.80
2019-03-12T08:27:53.799Z,10.70
2019-03-12T08:30:27.013Z,9.20
2019-03-12T08:33:04.233Z,14.47
2019-03-12T08:35:37.479Z,6.80
2019-03-12T08:38:13.806Z,8.77
2019-03-12T08:40:52.737Z,8.17
2019-03-12T08:43:25.164Z,6.73
2019-03-12T08:46:04.334Z,7.47
2019-03-12T08:48:54.081Z,9.60
2019-03-12T08:51:30.223Z,8.40
2019-03-12T08:54:05.846Z,7.17
2019-03-12T08:56:54.271Z,8.20
2019-03-12T08:59:27.654Z,8.87
2019-03-12T09:02:12.849Z,9.27
2019-03-12T09:04:44.577Z,10.20
2019-03-12T09:07:23.974Z,10.33
2019-03-12T09:10:21.691Z,10.93
2019-03-12T09:12:53.468Z,11.37
2019-03-12T09:15:29.431Z,11.17
2019-03-12T09:18:19.000Z,16.07
2019-03-12T09:21:10.466Z,10.80
2019-03-12T09:24:02.092Z,11.77
2019-03-12T09:26:35.238Z,9.97
2019-03-12T09:29:14.314Z,11.00
2019-03-12T09:32:08.176Z,10.17
2019-03-12T09:34:44.568Z,10.73
2019-03-12T09:37:30.040Z,9.80
2019-03-12T09:40:02.474Z,9.73
2019-03-12T09:42:54.076Z,15.47
2019-03-12T09:45:43.302Z,11.50
2019-03-12T09:48:23.331Z,11.47
2019-03-12T09:51:09.034Z,12.87
2019-03-12T09:53:46.612Z,10.60
2019-03-12T09:56:17.974Z,11.90
2019-03-12T09:59:03.529Z,9.60
2019-03-12T10:01:53.350Z,14.73
2019-03-12T10:04:32.241Z,14.20
2019-03-12T10:07:14.172Z,13.70
2019-03-12T10:09:47.544Z,12.47
2019-03-12T10:12:37.047Z,13.70
2019-03-12T10:15:12.221Z,11.53
2019-03-12T10:17:57.467Z,9.70
2019-03-12T10:20:43.018Z,9.43
2019-03-12T10:23:14.387Z,9.83
2019-03-12T10:25:53.713Z,13.97
2019-03-12T10:28:38.268Z,16.20
2019-03-12T10:31:21.652Z,12.33
2019-03-12T10:34:01.627Z,10.70
2019-03-12T10:36:35.103Z,14.07
2019-03-12T10:39:49.822Z,10.37
2019-03-12T10:42:33.580Z,12.87
2019-03-12T10:45:26.667Z,10.17
2019-03-12T10:48:05.135Z,16.23
2019-03-12T10:50:36.688Z,15.73
2019-03-12T10:53:08.358Z,14.87
2019-03-12T10:55:39.954Z,13.07
2019-03-12T10:58:11.492Z,11.47
2019-03-12T11:00:43.187Z,11.97
2019-03-12T11:03:14.945Z,11.50
2019-03-12T11:05:46.565Z,11.33
2019-03-12T11:08:18.296Z,12.67
2019-03-12T11:10:49.890Z,11.03
2019-03-12T11:13:21.422Z,13.60
2019-03-12T11:15:53.892Z,13.73
2019-03-12T11:18:25.420Z,10.47
2019-03-12T11:20:58.710Z,14.67
2019-03-12T11:23:30.346Z,11.87
2019-03-12T11:26:02.006Z,13.43
2019-03-12T11:28:33.616Z,14.40
2019-03-12T11:31:05.216Z,10.03
2019-03-12T11:33:36.810Z,11.10
2019-03-12T11:36:09.537Z,10.40
2019-03-12T11:38:42.819Z,13.17
2019-03-12T11:41:14.563Z,10.73
2019-03-12T11:43:46.250Z,14.23
2019-03-12T11:46:17.877Z,10.83
2019-03-12T11:48:49.598Z,12.53
2019-03-12T11:51:21.114Z,17.60
2019-03-12T11:53:53.128Z,12.73
2019-03-12T11:56:24.788Z,14.03
2019-03-12T11:58:56.406Z,11.70
2019-03-12T12:01:28.042Z,11.00
2019-03-12T12:03:59.691Z,11.00
2019-03-12T12:06:31.638Z,13.13
2019-03-12T12:09:03.310Z,11.97
2019-03-12T12:11:36.435Z,8.73
2019-03-12T12:14:07.967Z,10.27
2019-03-12T12:16:39.656Z,12.30
2019-03-12T12:19:11.247Z,10.23
2019-03-12T12:21:43.181Z,8.53
2019-03-12T12:24:14.966Z,8.73
2019-03-12T12:26:46.471Z,12.13
2019-03-12T12:29:18.219Z,12.80
2019-03-12T12:31:49.950Z,11.47
2019-03-12T12:34:22.067Z,9.73
2019-03-12T12:36:53.660Z,14.60
2019-03-12T12:39:25.187Z,11.77
2019-03-12T12:41:57.728Z,9.67
2019-03-12T12:44:29.705Z,11.40
2019-03-12T12:47:01.253Z,11.83
2019-03-12T12:49:32.984Z,9.53
2019-03-12T12:52:04.679Z,11.97
2019-03-12T12:54:37.164Z,8.30
2019-03-12T12:57:08.690Z,10.30
2019-03-12T12:59:40.384Z,7.47
2019-03-12T13:02:11.914Z,7.60
2019-03-12T13:04:43.983Z,9.33
2019-03-12T13:07:15.661Z,7.60
2019-03-12T13:09:47.545Z,6.23
2019-03-12T13:12:19.180Z,11.30
2019-03-12T13:14:50.771Z,8.60
2019-03-12T13:17:22.312Z,7.53
2019-03-12T13:19:53.935Z,8.73
2019-03-12T13:22:25.677Z,7.47
2019-03-12T13:24:57.242Z,9.43
2019-03-12T13:27:41.361Z,6.53
2019-03-12T13:30:02.093Z,10.13
2019-03-12T13:32:33.851Z,13.10
2019-03-12T13:35:18.642Z,16.43
2019-03-12T13:37:50.764Z,16.30
2019-03-12T13:40:26.779Z,13.97
2019-03-12T13:42:58.731Z,12.17
2019-03-12T13:45:33.690Z,9.07
2019-03-12T13:48:05.213Z,10.67
2019-03-12T13:50:36.711Z,9.10
2019-03-12T13:53:08.728Z,13.97
2019-03-12T13:55:40.321Z,9.53
2019-03-12T13:58:11.866Z,9.50
2019-03-12T14:00:43.602Z,11.37
2019-03-12T14:03:15.206Z,8.63
2019-03-12T14:05:46.891Z,8.97
2019-03-12T14:08:18.393Z,13.10
2019-03-12T14:10:49.995Z,12.97
2019-03-12T14:13:22.713Z,13.37
2019-03-12T14:15:54.361Z,11.67
2019-03-12T14:18:26.010Z,15.73
2019-03-12T14:21:02.808Z,12.53
2019-03-12T14:24:01.522Z,9.73
2019-03-12T14:26:33.248Z,8.13
2019-03-12T14:29:04.963Z,7.87
2019-03-12T14:31:36.554Z,7.33
2019-03-12T14:34:08.080Z,6.77
2019-03-12T14:36:39.614Z,7.67
2019-03-12T14:39:11.587Z,8.90
2019-03-12T14:41:44.711Z,7.60
2019-03-12T14:44:16.309Z,7.20
2019-03-12T14:46:48.054Z,9.57
2019-03-12T14:49:19.637Z,7.27
2019-03-12T14:52:04.948Z,7.03
2019-03-12T14:54:36.521Z,8.83
2019-03-12T14:57:08.054Z,8.03
2019-03-12T14:59:39.641Z,9.90
2019-03-12T15:02:11.159Z,12.80
2019-03-12T15:04:43.434Z,12.83
2019-03-12T15:07:14.963Z,14.37
2019-03-12T15:09:46.815Z,8.83
2019-03-12T15:12:18.486Z,12.10
2019-03-12T15:14:50.073Z,11.33
2019-03-12T15:17:23.323Z,17.53
2019-03-12T15:19:55.178Z,14.93
2019-03-12T15:22:28.326Z,18.67
2019-03-12T15:25:01.288Z,14.63
2019-03-12T15:27:33.309Z,18.43
2019-03-12T15:30:11.666Z,13.10
2019-03-12T15:32:43.287Z,10.80
2019-03-12T15:35:16.045Z,8.97
2019-03-12T15:37:47.904Z,9.60
2019-03-12T15:40:19.790Z,13.50
2019-03-12T15:42:55.739Z,12.07
2019-03-12T15:45:27.518Z,14.87
2019-03-12T15:47:59.103Z,13.27
2019-03-12T15:50:30.722Z,11.60
2019-03-12T15:53:02.426Z,9.60
2019-03-12T15:55:34.038Z,15.43
2019-03-12T15:58:05.621Z,11.07
2019-03-12T16:00:37.146Z,14.57
2019-03-12T16:03:08.703Z,17.00
2019-03-12T16:05:40.656Z,15.30
2019-03-12T16:08:12.357Z,14.47
2019-03-12T16:10:57.485Z,11.83
2019-03-12T16:13:19.106Z,9.63
2019-03-12T16:15:50.734Z,15.07
2019-03-12T16:18:22.254Z,9.30
2019-03-12T16:20:53.934Z,9.33
2019-03-12T16:23:25.513Z,14.73
2019-03-12T16:25:57.321Z,8.03
2019-03-12T16:28:29.016Z,9.27
2019-03-12T16:31:00.615Z,9.53
2019-03-12T16:33:32.341Z,13.10
2019-03-12T16:36:05.557Z,16.33
2019-03-12T16:38:38.069Z,20.43
2019-03-12T16:41:09.678Z,13.10
2019-03-12T16:43:41.505Z,13.30
2019-03-12T16:46:15.721Z,12.43
2019-03-12T16:48:48.873Z,16.47
2019-03-12T16:51:20.851Z,18.10
2019-03-12T16:53:52.459Z,17.33
2019-03-12T16:56:24.115Z,18.20
2019-03-12T16:58:55.616Z,21.70
2019-03-12T17:01:27.282Z,19.20
2019-03-12T17:03:59.914Z,22.27
2019-03-12T17:06:31.570Z,20.13
2019-03-12T17:09:04.778Z,22.43
2019-03-12T17:11:37.895Z,18.30
2019-03-12T17:14:14.174Z,21.87
2019-03-12T17:16:50.155Z,26.03
2019-03-12T17:19:22.762Z,19.80
2019-03-12T17:22:03.904Z,18.13
2019-03-12T17:24:37.039Z,16.83
2019-03-12T17:27:11.838Z,20.20
2019-03-12T17:29:43.559Z,21.67
2019-03-12T17:32:15.210Z,19.73
2019-03-12T17:34:46.910Z,20.17
2019-03-12T17:37:20.076Z,29.13
2019-03-12T17:39:51.744Z,23.27
2019-03-12T17:42:23.345Z,18.87
2019-03-12T17:44:54.953Z,23.00
2019-03-12T17:47:26.459Z,16.83
2019-03-12T17:49:59.066Z,17.47
2019-03-12T17:52:30.731Z,15.57
2019-03-12T17:55:02.339Z,14.77
2019-03-12T17:57:34.004Z,13.83
2019-03-12T18:00:32.695Z,16.07
2019-03-12T18:03:04.290Z,13.03
2019-03-12T18:05:35.885Z,16.03
2019-03-12T18:08:07.774Z,14.60
2019-03-12T18:10:40.475Z,18.90
2019-03-12T18:13:12.500Z,20.00
2019-03-12T18:15:44.247Z,19.87
2019-03-12T18:18:15.777Z,17.67
2019-03-12T18:20:47.299Z,21.13
2019-03-12T18:23:19.117Z,16.30
2019-03-12T18:25:52.132Z,20.27
2019-03-12T18:28:23.863Z,16.50
2019-03-12T18:30:55.542Z,23.07
2019-03-12T18:33:27.048Z,17.50
2019-03-12T18:35:58.661Z,18.43
2019-03-12T18:38:30.183Z,15.40
2019-03-12T18:41:01.757Z,16.87
2019-03-12T18:43:33.285Z,21.70
2019-03-12T18:46:05.469Z,19.47
2019-03-12T18:48:37.000Z,16.37
2019-03-12T18:51:08.536Z,16.63
2019-03-12T18:53:40.083Z,17.13
2019-03-12T18:56:11.582Z,16.50
2019-03-12T18:58:43.158Z,21.73
2019-03-12T19:01:15.441Z,17.43
2019-03-12T19:03:47.059Z,16.77
2019-03-12T19:06:19.408Z,21.40
2019-03-12T19:08:53.321Z,17.27
2019-03-12T19:11:24.965Z,15.60
2019-03-12T19:13:56.749Z,14.67
2019-03-12T19:16:28.254Z,18.60
2019-03-12T19:19:00.017Z,16.43
2019-03-12T19:21:31.691Z,17.43
2019-03-12T19:24:03.921Z,18.77
2019-03-12T19:26:35.592Z,14.37
2019-03-12T19:29:07.128Z,15.77
2019-03-12T19:31:49.429Z,16.43
2019-03-12T19:34:23.017Z,13.40
2019-03-12T19:36:54.650Z,18.27
2019-03-12T19:39:26.231Z,18.33
2019-03-12T19:41:57.888Z,12.83
2019-03-12T19:44:29.387Z,14.00
2019-03-12T19:47:04.222Z,13.30
2019-03-12T19:49:34.318Z,14.67
2019-03-12T19:52:10.720Z,19.23
2019-03-12T19:54:44.122Z,13.40
2019-03-12T19:57:15.668Z,17.10
2019-03-12T19:59:47.797Z,11.03
2019-03-12T20:02:20.138Z,14.30
2019-03-12T20:04:51.752Z,13.77
2019-03-12T20:07:23.277Z,11.53
2019-03-12T20:09:58.365Z,12.53
2019-03-12T20:13:17.650Z,11.67
2019-03-12T20:16:16.554Z,12.57
2019-03-12T20:19:15.845Z,10.37
2019-03-12T20:22:24.339Z,12.70
2019-03-12T20:25:40.040Z,15.60
2019-03-12T20:28:50.870Z,9.73
2019-03-12T20:31:51.530Z,12.10
2019-03-12T20:34:52.626Z,14.43
2019-03-12T20:38:09.531Z,19.57
2019-03-12T20:41:17.757Z,12.63
2019-03-12T20:44:17.986Z,13.53
2019-03-12T20:47:06.424Z,12.80
2019-03-12T20:50:29.361Z,12.23
2019-03-12T20:53:39.118Z,12.70
2019-03-12T20:56:41.492Z,13.67
2019-03-12T21:00:09.571Z,15.00
2019-03-12T21:03:35.456Z,15.20
2019-03-12T21:06:46.772Z,15.40
2019-03-12T21:09:47.819Z,17.00
2019-03-12T21:12:44.851Z,15.03
2019-03-12T21:15:48.630Z,16.23
2019-03-12T21:18:58.242Z,13.57
2019-03-12T21:22:22.493Z,14.27
2019-03-12T21:25:21.362Z,12.53
2019-03-12T21:28:31.182Z,18.80
2019-03-12T21:31:02.792Z,20.63
2019-03-12T21:33:34.479Z,18.20
2019-03-12T21:36:08.191Z,19.93
2019-03-12T21:38:39.250Z,15.77
2019-03-12T21:41:10.831Z,19.20
2019-03-12T21:43:42.397Z,17.40
2019-03-12T21:46:14.133Z,13.00
2019-03-12T21:48:46.852Z,16.50
2019-03-12T21:51:18.379Z,15.50
2019-03-12T21:53:50.033Z,14.70
2019-03-12T21:56:21.544Z,16.77
2019-03-12T21:58:53.200Z,14.83
2019-03-12T22:01:24.710Z,16.30
2019-03-12T22:03:56.676Z,14.47
2019-03-12T22:06:28.298Z,17.87
2019-03-12T22:08:59.905Z,14.77
2019-03-12T22:11:31.584Z,19.60
2019-03-12T22:14:03.109Z,13.77
2019-03-12T22:16:37.685Z,13.53
2019-03-12T22:19:09.297Z,21.00
2019-03-12T22:21:42.661Z,16.10
2019-03-12T22:24:16.014Z,13.27
2019-03-12T22:26:47.591Z,17.83
2019-03-12T22:29:19.126Z,14.80
2019-03-12T22:31:50.821Z,12.53
2019-03-12T22:34:22.517Z,14.87
2019-03-12T22:36:54.213Z,13.97
2019-03-12T22:39:25.753Z,20.03
2019-03-12T22:41:57.267Z,17.23
2019-03-12T22:44:28.792Z,18.13
2019-03-12T22:47:00.317Z,14.70
2019-03-12T22:49:31.946Z,14.90
2019-03-12T22:52:03.472Z,14.00
2019-03-12T22:54:34.975Z,14.27
2019-03-12T22:57:07.255Z,16.27
2019-03-12T22:59:56.861Z,15.93
2019-03-12T23:02:46.765Z,23.27
2019-03-12T23:05:37.646Z,13.10
2019-03-12T23:08:27.783Z,16.10
2019-03-12T23:11:02.474Z,16.90
2019-03-12T23:13:35.795Z,16.10
2019-03-12T23:16:09.631Z,14.57
2019-03-12T23:18:47.342Z,14.20
2019-03-12T23:21:18.946Z,15.00
2019-03-12T23:23:50.745Z,15.97
2019-03-12T23:26:22.641Z,14.10
2019-03-12T23:28:54.449Z,17.30
2019-03-12T23:34:03.207Z,13.40
2019-03-12T23:36:34.790Z,11.77
2019-03-12T23:39:07.741Z,13.90
2019-03-12T23:41:42.607Z,11.60
2019-03-12T23:44:15.646Z,12.43
2019-03-12T23:46:47.195Z,14.10
2019-03-12T23:49:19.165Z,13.03
2019-03-12T23:51:50.905Z,10.03
2019-03-12T23:54:22.570Z,15.20
2019-03-12T23:56:54.238Z,13.10
2019-03-12T23:59:26.047Z,12.43
